sensor_id;sensor_type;location;lat;lon;timestamp;pressure;altitude;pressure_sealevel;temperature;humidity
9335;BME280;4706;41.844;26.082;2022-10-18T00:00:52;102430.69;;;14.90;58.76
9335;BME280;4706;41.844;26.082;2022-10-18T00:03:18;102427.31;;;14.98;58.16
9335;BME280;4706;41.844;26.082;2022-10-18T00:05:44;102423.19;;;14.95;58.34
9335;BME280;4706;41.844;26.082;2022-10-18T00:08:09;102429.28;;;14.92;58.05
9335;BME280;4706;41.844;26.082;2022-10-18T00:10:35;102423.47;;;14.94;58.15
9335;BME280;4706;41.844;26.082;2022-10-18T00:13:00;102416.00;;;14.89;58.12
9335;BME280;4706;41.844;26.082;2022-10-18T00:15:26;102409.97;;;14.82;58.36
9335;BME280;4706;41.844;26.082;2022-10-18T00:17:51;102408.06;;;14.72;58.71
9335;BME280;4706;41.844;26.082;2022-10-18T00:20:17;102401.16;;;14.65;59.10
9335;BME280;4706;41.844;26.082;2022-10-18T00:22:42;102415.53;;;14.67;58.69
9335;BME280;4706;41.844;26.082;2022-10-18T00:25:08;102419.19;;;14.47;59.35
9335;BME280;4706;41.844;26.082;2022-10-18T00:27:34;102412.59;;;14.38;59.26
9335;BME280;4706;41.844;26.082;2022-10-18T00:30:00;102402.38;;;14.33;59.74
9335;BME280;4706;41.844;26.082;2022-10-18T00:32:26;102401.22;;;14.39;59.63
9335;BME280;4706;41.844;26.082;2022-10-18T00:34:52;102391.81;;;14.35;59.85
9335;BME280;4706;41.844;26.082;2022-10-18T00:37:17;102395.09;;;14.47;59.29
9335;BME280;4706;41.844;26.082;2022-10-18T00:39:43;102400.94;;;14.46;59.49
9335;BME280;4706;41.844;26.082;2022-10-18T00:42:16;102400.94;;;14.46;59.22
9335;BME280;4706;41.844;26.082;2022-10-18T00:47:09;102409.53;;;14.44;59.25
9335;BME280;4706;41.844;26.082;2022-10-18T00:49:42;102396.50;;;14.40;59.12
9335;BME280;4706;41.844;26.082;2022-10-18T00:52:18;102407.91;;;14.33;59.69
9335;BME280;4706;41.844;26.082;2022-10-18T00:54:46;102394.88;;;14.33;59.76
9335;BME280;4706;41.844;26.082;2022-10-18T00:57:13;102398.44;;;14.39;59.77
9335;BME280;4706;41.844;26.082;2022-10-18T00:59:39;102399.31;;;14.34;59.74
9335;BME280;4706;41.844;26.082;2022-10-18T01:02:06;102394.88;;;14.33;59.61
9335;BME280;4706;41.844;26.082;2022-10-18T01:04:33;102387.66;;;14.32;59.80
9335;BME280;4706;41.844;26.082;2022-10-18T01:09:50;102391.56;;;14.31;59.37
9335;BME280;4706;41.844;26.082;2022-10-18T01:17:51;102378.56;;;14.27;59.10
9335;BME280;4706;41.844;26.082;2022-10-18T01:20:40;102379.69;;;14.21;59.44
9335;BME280;4706;41.844;26.082;2022-10-18T01:29:00;102377.19;;;14.24;58.80
9335;BME280;4706;41.844;26.082;2022-10-18T01:31:34;102370.31;;;14.12;58.95
9335;BME280;4706;41.844;26.082;2022-10-18T01:34:07;102355.13;;;14.04;58.76
9335;BME280;4706;41.844;26.082;2022-10-18T01:36:40;102360.06;;;14.12;59.00
9335;BME280;4706;41.844;26.082;2022-10-18T01:39:11;102351.81;;;13.92;59.19
9335;BME280;4706;41.844;26.082;2022-10-18T01:41:40;102357.59;;;14.00;59.40
9335;BME280;4706;41.844;26.082;2022-10-18T01:44:11;102355.13;;;14.04;59.55
9335;BME280;4706;41.844;26.082;2022-10-18T01:46:39;102359.28;;;13.86;59.55
9335;BME280;4706;41.844;26.082;2022-10-18T01:49:06;102356.81;;;13.90;60.28
9335;BME280;4706;41.844;26.082;2022-10-18T01:51:32;102366.50;;;13.92;60.32
9335;BME280;4706;41.844;26.082;2022-10-18T01:53:58;102349.31;;;13.90;60.13
9335;BME280;4706;41.844;26.082;2022-10-18T01:59:04;102362.59;;;13.93;60.50
9335;BME280;4706;41.844;26.082;2022-10-18T02:04:41;102360.13;;;13.76;61.69
9335;BME280;4706;41.844;26.082;2022-10-18T02:07:14;102363.72;;;13.72;61.71
9335;BME280;4706;41.844;26.082;2022-10-18T02:09:51;102371.19;;;13.71;62.01
9335;BME280;4706;41.844;26.082;2022-10-18T02:12:21;102368.72;;;13.75;61.91
9335;BME280;4706;41.844;26.082;2022-10-18T02:14:48;102363.19;;;13.70;61.89
9335;BME280;4706;41.844;26.082;2022-10-18T02:17:15;102365.66;;;13.71;61.77
9335;BME280;4706;41.844;26.082;2022-10-18T02:19:47;102373.72;;;13.73;62.17
9335;BME280;4706;41.844;26.082;2022-10-18T02:22:16;102364.03;;;13.80;61.53
9335;BME280;4706;41.844;26.082;2022-10-18T02:24:44;102360.13;;;13.76;61.23
9335;BME280;4706;41.844;26.082;2022-10-18T02:27:11;102361.53;;;13.74;61.59
9335;BME280;4706;41.844;26.082;2022-10-18T02:29:38;102355.72;;;13.70;61.93
9335;BME280;4706;41.844;26.082;2022-10-18T02:34:46;102349.91;;;13.56;62.76
9335;BME280;4706;41.844;26.082;2022-10-18T02:37:14;102343.28;;;13.52;62.81
9335;BME280;4706;41.844;26.082;2022-10-18T02:39:47;102356.00;;;13.58;62.66
9335;BME280;4706;41.844;26.082;2022-10-18T02:42:14;102362.63;;;13.68;62.29
9335;BME280;4706;41.844;26.082;2022-10-18T02:44:40;102346.03;;;13.57;62.40
9335;BME280;4706;41.844;26.082;2022-10-18T02:47:07;102354.88;;;13.65;61.90
9335;BME280;4706;41.844;26.082;2022-10-18T02:49:33;102362.09;;;13.60;62.00
9335;BME280;4706;41.844;26.082;2022-10-18T02:51:59;102368.44;;;13.56;62.26
9335;BME280;4706;41.844;26.082;2022-10-18T02:54:24;102356.00;;;13.53;62.39
9335;BME280;4706;41.844;26.082;2022-10-18T02:56:50;102351.06;;;13.50;61.95
9335;BME280;4706;41.844;26.082;2022-10-18T02:59:16;102359.06;;;13.52;62.43
9335;BME280;4706;41.844;26.082;2022-10-18T03:01:41;102354.06;;;13.39;62.54
9335;BME280;4706;41.844;26.082;2022-10-18T03:04:08;102357.97;;;13.43;62.61
9335;BME280;4706;41.844;26.082;2022-10-18T03:06:34;102347.44;;;13.40;63.05
9335;BME280;4706;41.844;26.082;2022-10-18T03:09:01;102358.22;;;13.46;62.92
9335;BME280;4706;41.844;26.082;2022-10-18T03:11:27;102339.72;;;13.31;63.49
9335;BME280;4706;41.844;26.082;2022-10-18T03:13:52;102358.22;;;13.31;63.76
9335;BME280;4706;41.844;26.082;2022-10-18T03:16:18;102334.97;;;13.22;63.59
9335;BME280;4706;41.844;26.082;2022-10-18T03:18:43;102346.06;;;13.32;63.57
9335;BME280;4706;41.844;26.082;2022-10-18T03:21:09;102364.00;;;13.34;64.17
9335;BME280;4706;41.844;26.082;2022-10-18T03:23:35;102359.88;;;13.32;63.75
9335;BME280;4706;41.844;26.082;2022-10-18T03:26:00;102360.16;;;13.30;63.37
9335;BME280;4706;41.844;26.082;2022-10-18T03:28:26;102356.03;;;13.28;63.49
9335;BME280;4706;41.844;26.082;2022-10-18T03:30:51;102331.09;;;13.02;63.41
9335;BME280;4706;41.844;26.082;2022-10-18T03:33:17;102365.69;;;13.25;63.24
9335;BME280;4706;41.844;26.082;2022-10-18T03:35:43;102365.34;;;13.11;63.96
9335;BME280;4706;41.844;26.082;2022-10-18T03:38:08;102364.81;;;13.09;64.07
9335;BME280;4706;41.844;26.082;2022-10-18T03:40:34;102378.34;;;13.21;64.27
9335;BME280;4706;41.844;26.082;2022-10-18T03:42:59;102381.97;;;13.17;63.90
9335;BME280;4706;41.844;26.082;2022-10-18T03:45:25;102367.28;;;13.16;64.20
9335;BME280;4706;41.844;26.082;2022-10-18T03:47:51;102375.84;;;13.15;63.72
9335;BME280;4706;41.844;26.082;2022-10-18T03:50:16;102389.66;;;13.20;63.36
9335;BME280;4706;41.844;26.082;2022-10-18T03:52:42;102391.88;;;13.12;63.48
9335;BME280;4706;41.844;26.082;2022-10-18T03:55:07;102397.34;;;12.92;63.21
9335;BME280;4706;41.844;26.082;2022-10-18T03:57:33;102397.94;;;12.94;62.58
9335;BME280;4706;41.844;26.082;2022-10-18T03:59:59;102390.97;;;12.76;62.86
9335;BME280;4706;41.844;26.082;2022-10-18T04:02:24;102388.16;;;12.71;62.77
9335;BME280;4706;41.844;26.082;2022-10-18T04:04:50;102389.03;;;12.82;63.16
9335;BME280;4706;41.844;26.082;2022-10-18T04:07:16;102389.06;;;12.92;62.92
9335;BME280;4706;41.844;26.082;2022-10-18T04:09:42;102387.13;;;12.93;62.67
9335;BME280;4706;41.844;26.082;2022-10-18T04:12:07;102390.44;;;12.84;62.28
9335;BME280;4706;41.844;26.082;2022-10-18T04:14:33;102387.66;;;12.84;62.34
9335;BME280;4706;41.844;26.082;2022-10-18T04:16:58;102393.75;;;12.86;62.38
9335;BME280;4706;41.844;26.082;2022-10-18T04:19:24;102397.34;;;12.87;62.16
9335;BME280;4706;41.844;26.082;2022-10-18T04:21:49;102392.63;;;12.82;62.39
9335;BME280;4706;41.844;26.082;2022-10-18T04:24:16;102395.94;;;12.79;62.40
9335;BME280;4706;41.844;26.082;2022-10-18T04:26:42;102397.31;;;12.77;62.58
9335;BME280;4706;41.844;26.082;2022-10-18T04:29:07;102385.72;;;12.80;62.58
9335;BME280;4706;41.844;26.082;2022-10-18T04:31:33;102385.16;;;12.78;62.86
9335;BME280;4706;41.844;26.082;2022-10-18T04:33:58;102383.78;;;12.75;62.77
9335;BME280;4706;41.844;26.082;2022-10-18T04:36:24;102385.97;;;12.78;63.16
9335;BME280;4706;41.844;26.082;2022-10-18T04:38:49;102364.16;;;12.72;62.34
9335;BME280;4706;41.844;26.082;2022-10-18T04:41:15;102392.66;;;12.87;62.31
9335;BME280;4706;41.844;26.082;2022-10-18T04:43:40;102397.31;;;12.77;62.78
9335;BME280;4706;41.844;26.082;2022-10-18T04:46:05;102394.84;;;12.75;62.63
9335;BME280;4706;41.844;26.082;2022-10-18T04:48:31;102385.69;;;12.70;62.38
9335;BME280;4706;41.844;26.082;2022-10-18T04:50:56;102396.25;;;12.83;62.35
9335;BME280;4706;41.844;26.082;2022-10-18T04:53:22;102392.84;;;12.66;62.30
9335;BME280;4706;41.844;26.082;2022-10-18T04:55:48;102398.66;;;12.69;62.05
9335;BME280;4706;41.844;26.082;2022-10-18T04:58:15;102405.59;;;12.72;62.41
9335;BME280;4706;41.844;26.082;2022-10-18T05:00:41;102402.53;;;12.68;61.72
9335;BME280;4706;41.844;26.082;2022-10-18T05:03:07;102401.66;;;12.62;61.84
9335;BME280;4706;41.844;26.082;2022-10-18T05:05:33;102395.84;;;12.54;61.76
9335;BME280;4706;41.844;26.082;2022-10-18T05:07:59;102405.25;;;12.63;61.87
9335;BME280;4706;41.844;26.082;2022-10-18T05:10:24;102401.97;;;12.66;62.09
9335;BME280;4706;41.844;26.082;2022-10-18T05:12:50;102397.78;;;12.63;62.08
9335;BME280;4706;41.844;26.082;2022-10-18T05:15:15;102402.25;;;12.64;62.45
9335;BME280;4706;41.844;26.082;2022-10-18T05:17:41;102395.31;;;12.67;62.57
9335;BME280;4706;41.844;26.082;2022-10-18T05:20:07;102408.34;;;12.72;62.12
9335;BME280;4706;41.844;26.082;2022-10-18T05:22:32;102407.28;;;12.83;61.67
9335;BME280;4706;41.844;26.082;2022-10-18T05:24:58;102414.47;;;12.84;62.21
9335;BME280;4706;41.844;26.082;2022-10-18T05:27:23;102416.41;;;12.88;61.94
9335;BME280;4706;41.844;26.082;2022-10-18T05:29:49;102415.88;;;12.92;62.16
9335;BME280;4706;41.844;26.082;2022-10-18T05:32:14;102424.44;;;12.95;62.04
9335;BME280;4706;41.844;26.082;2022-10-18T05:34:40;102434.66;;;12.95;61.88
9335;BME280;4706;41.844;26.082;2022-10-18T05:37:05;102427.75;;;12.92;62.27
9335;BME280;4706;41.844;26.082;2022-10-18T05:39:31;102417.28;;;13.04;61.95
9335;BME280;4706;41.844;26.082;2022-10-18T05:41:56;102417.84;;;13.11;61.82
9335;BME280;4706;41.844;26.082;2022-10-18T05:44:22;102421.47;;;13.17;62.26
9335;BME280;4706;41.844;26.082;2022-10-18T05:46:48;102423.41;;;13.17;62.04
9335;BME280;4706;41.844;26.082;2022-10-18T05:49:13;102415.09;;;13.22;61.69
9335;BME280;4706;41.844;26.082;2022-10-18T05:51:40;102418.75;;;13.32;61.63
9335;BME280;4706;41.844;26.082;2022-10-18T05:54:05;102413.25;;;13.43;61.24
9335;BME280;4706;41.844;26.082;2022-10-18T05:56:31;102426.78;;;13.49;61.26
9335;BME280;4706;41.844;26.082;2022-10-18T05:58:56;102422.63;;;13.57;61.20
9335;BME280;4706;41.844;26.082;2022-10-18T06:01:22;102420.16;;;13.60;60.84
9335;BME280;4706;41.844;26.082;2022-10-18T06:03:47;102421.53;;;13.63;61.15
9335;BME280;4706;41.844;26.082;2022-10-18T06:06:14;102412.41;;;13.63;60.85
9335;BME280;4706;41.844;26.082;2022-10-18T06:08:40;102417.09;;;13.72;60.86
9335;BME280;4706;41.844;26.082;2022-10-18T06:11:08;102415.19;;;13.78;60.23
9335;BME280;4706;41.844;26.082;2022-10-18T06:13:39;102414.06;;;13.84;60.29
9335;BME280;4706;41.844;26.082;2022-10-18T06:16:05;102420.16;;;13.96;59.90
9335;BME280;4706;41.844;26.082;2022-10-18T06:18:30;102401.31;;;14.03;59.74
9335;BME280;4706;41.844;26.082;2022-10-18T06:20:59;102412.66;;;14.07;59.99
9335;BME280;4706;41.844;26.082;2022-10-18T06:23:26;102407.69;;;14.14;59.46
9335;BME280;4706;41.844;26.082;2022-10-18T06:25:52;102413.72;;;14.21;59.26
9335;BME280;4706;41.844;26.082;2022-10-18T06:28:17;102409.84;;;14.27;58.90
9335;BME280;4706;41.844;26.082;2022-10-18T06:30:43;102411.75;;;14.32;58.50
9335;BME280;4706;41.844;26.082;2022-10-18T06:33:08;102400.69;;;14.37;58.36
9335;BME280;4706;41.844;26.082;2022-10-18T06:35:36;102411.72;;;14.47;58.04
9335;BME280;4706;41.844;26.082;2022-10-18T06:38:02;102405.31;;;14.62;58.03
9335;BME280;4706;41.844;26.082;2022-10-18T06:40:27;102395.00;;;14.78;58.07
9335;BME280;4706;41.844;26.082;2022-10-18T06:42:55;102399.06;;;14.96;57.64
9335;BME280;4706;41.844;26.082;2022-10-18T06:45:20;102398.69;;;15.13;56.97
9335;BME280;4706;41.844;26.082;2022-10-18T06:47:46;102400.66;;;15.12;56.80
9335;BME280;4706;41.844;26.082;2022-10-18T06:50:12;102393.41;;;15.16;55.93
9335;BME280;4706;41.844;26.082;2022-10-18T06:52:37;102389.72;;;15.26;55.35
9335;BME280;4706;41.844;26.082;2022-10-18T06:55:03;102392.75;;;15.29;55.62
9335;BME280;4706;41.844;26.082;2022-10-18T06:57:29;102396.31;;;15.35;55.97
9335;BME280;4706;41.844;26.082;2022-10-18T06:59:54;102389.97;;;15.35;56.25
9335;BME280;4706;41.844;26.082;2022-10-18T07:02:20;102389.22;;;15.53;55.39
9335;BME280;4706;41.844;26.082;2022-10-18T07:04:45;102388.50;;;15.42;55.53
9335;BME280;4706;41.844;26.082;2022-10-18T07:07:11;102391.72;;;15.54;55.53
9335;BME280;4706;41.844;26.082;2022-10-18T07:09:36;102386.31;;;15.73;55.44
9335;BME280;4706;41.844;26.082;2022-10-18T07:12:02;102389.44;;;15.96;55.34
9335;BME280;4706;41.844;26.082;2022-10-18T07:14:27;102382.50;;;16.22;54.42
9335;BME280;4706;41.844;26.082;2022-10-18T07:16:53;102384.84;;;16.58;53.62
9335;BME280;4706;41.844;26.082;2022-10-18T07:19:18;102377.91;;;16.80;52.04
9335;BME280;4706;41.844;26.082;2022-10-18T07:21:44;102385.31;;;17.08;52.55
9335;BME280;4706;41.844;26.082;2022-10-18T07:24:09;102371.16;;;17.42;51.16
9335;BME280;4706;41.844;26.082;2022-10-18T07:26:35;102360.63;;;17.72;50.48
9335;BME280;4706;41.844;26.082;2022-10-18T07:29:05;102354.81;;;18.01;49.96
9335;BME280;4706;41.844;26.082;2022-10-18T07:31:31;102357.31;;;18.30;49.99
9335;BME280;4706;41.844;26.082;2022-10-18T07:33:57;102347.06;;;18.53;49.46
9335;BME280;4706;41.844;26.082;2022-10-18T07:36:23;102344.88;;;18.64;48.92
9335;BME280;4706;41.844;26.082;2022-10-18T07:38:53;102335.56;;;18.68;49.29
9335;BME280;4706;41.844;26.082;2022-10-18T07:41:19;102348.31;;;18.75;48.93
9335;BME280;4706;41.844;26.082;2022-10-18T07:43:46;102336.53;;;18.78;48.85
9335;BME280;4706;41.844;26.082;2022-10-18T07:46:14;102337.97;;;18.75;48.87
9335;BME280;4706;41.844;26.082;2022-10-18T07:48:40;102337.53;;;18.68;48.63
9335;BME280;4706;41.844;26.082;2022-10-18T07:51:05;102326.94;;;18.56;48.63
9335;BME280;4706;41.844;26.082;2022-10-18T07:53:31;102325.72;;;18.49;48.99
9335;BME280;4706;41.844;26.082;2022-10-18T07:56:03;102317.47;;;18.43;48.82
9335;BME280;4706;41.844;26.082;2022-10-18T07:58:30;102324.28;;;18.51;49.67
9335;BME280;4706;41.844;26.082;2022-10-18T08:00:56;102323.09;;;18.80;48.70
9335;BME280;4706;41.844;26.082;2022-10-18T08:03:22;102317.06;;;19.23;48.19
9335;BME280;4706;41.844;26.082;2022-10-18T08:05:54;102320.19;;;19.75;47.20
9335;BME280;4706;41.844;26.082;2022-10-18T08:08:21;102307.56;;;20.17;46.21
9335;BME280;4706;41.844;26.082;2022-10-18T08:10:47;102307.84;;;20.55;45.22
9335;BME280;4706;41.844;26.082;2022-10-18T08:13:13;102294.88;;;20.77;44.45
9335;BME280;4706;41.844;26.082;2022-10-18T08:15:39;102301.13;;;21.00;43.73
9335;BME280;4706;41.844;26.082;2022-10-18T08:18:04;102284.47;;;21.12;43.57
9335;BME280;4706;41.844;26.082;2022-10-18T08:20:30;102298.13;;;21.40;43.15
9335;BME280;4706;41.844;26.082;2022-10-18T08:22:58;102292.44;;;21.66;42.63
9335;BME280;4706;41.844;26.082;2022-10-18T08:25:24;102272.59;;;21.88;41.83
9335;BME280;4706;41.844;26.082;2022-10-18T08:27:49;102273.97;;;22.12;41.80
9335;BME280;4706;41.844;26.082;2022-10-18T08:30:15;102248.84;;;22.24;41.50
9335;BME280;4706;41.844;26.082;2022-10-18T08:32:40;102263.78;;;22.58;41.06
9335;BME280;4706;41.844;26.082;2022-10-18T08:35:06;102258.97;;;22.79;40.74
9335;BME280;4706;41.844;26.082;2022-10-18T08:37:32;102232.00;;;22.87;40.39
9335;BME280;4706;41.844;26.082;2022-10-18T08:39:58;102235.63;;;23.08;39.77
9335;BME280;4706;41.844;26.082;2022-10-18T08:42:55;102238.72;;;23.27;39.45
9335;BME280;4706;41.844;26.082;2022-10-18T08:45:24;102241.22;;;23.41;39.12
9335;BME280;4706;41.844;26.082;2022-10-18T08:47:50;102242.97;;;23.46;39.07
9335;BME280;4706;41.844;26.082;2022-10-18T08:50:24;102235.03;;;23.60;38.79
9335;BME280;4706;41.844;26.082;2022-10-18T08:52:57;102225.56;;;23.65;37.99
9335;BME280;4706;41.844;26.082;2022-10-18T08:55:51;102205.78;;;23.61;38.23
9335;BME280;4706;41.844;26.082;2022-10-18T08:58:25;102212.97;;;23.71;38.62
9335;BME280;4706;41.844;26.082;2022-10-18T09:03:52;102211.91;;;24.00;37.91
9335;BME280;4706;41.844;26.082;2022-10-18T09:11:49;102195.25;;;24.07;37.49
9335;BME280;4706;41.844;26.082;2022-10-18T09:19:17;102192.81;;;23.81;37.83
9335;BME280;4706;41.844;26.082;2022-10-18T09:21:50;102183.66;;;23.47;38.17
9335;BME280;4706;41.844;26.082;2022-10-18T09:26:48;102175.06;;;23.19;39.10
9335;BME280;4706;41.844;26.082;2022-10-18T09:32:20;102171.38;;;23.77;38.21
9335;BME280;4706;41.844;26.082;2022-10-18T09:34:56;102167.97;;;24.08;37.86
9335;BME280;4706;41.844;26.082;2022-10-18T09:37:26;102161.19;;;24.37;36.92
9335;BME280;4706;41.844;26.082;2022-10-18T09:39:59;102153.38;;;24.30;36.86
9335;BME280;4706;41.844;26.082;2022-10-18T09:42:35;102158.97;;;24.42;36.67
9335;BME280;4706;41.844;26.082;2022-10-18T09:45:07;102145.63;;;24.67;36.41
9335;BME280;4706;41.844;26.082;2022-10-18T09:47:41;102139.66;;;24.85;36.11
9335;BME280;4706;41.844;26.082;2022-10-18T09:50:26;102136.59;;;25.06;35.67
9335;BME280;4706;41.844;26.082;2022-10-18T09:55:35;102117.28;;;25.36;34.96
9335;BME280;4706;41.844;26.082;2022-10-18T09:58:04;102119.06;;;25.60;34.70
9335;BME280;4706;41.844;26.082;2022-10-18T10:00:38;102115.22;;;25.68;34.47
9335;BME280;4706;41.844;26.082;2022-10-18T10:03:10;102115.66;;;25.86;34.00
9335;BME280;4706;41.844;26.082;2022-10-18T10:05:45;102111.22;;;25.85;33.20
9335;BME280;4706;41.844;26.082;2022-10-18T10:08:11;102100.41;;;25.71;33.85
9335;BME280;4706;41.844;26.082;2022-10-18T10:10:44;102095.50;;;25.68;33.18
9335;BME280;4706;41.844;26.082;2022-10-18T10:13:18;102064.94;;;24.71;34.15
9335;BME280;4706;41.844;26.082;2022-10-18T10:16:05;102101.53;;;25.03;34.92
9335;BME280;4706;41.844;26.082;2022-10-18T10:18:32;102090.47;;;25.26;33.87
9335;BME280;4706;41.844;26.082;2022-10-18T10:21:02;102087.13;;;25.36;33.34
9335;BME280;4706;41.844;26.082;2022-10-18T10:23:38;102080.75;;;25.39;33.84
9335;BME280;4706;41.844;26.082;2022-10-18T10:26:27;102073.06;;;25.56;33.58
9335;BME280;4706;41.844;26.082;2022-10-18T10:28:53;102061.28;;;25.50;33.04
9335;BME280;4706;41.844;26.082;2022-10-18T10:31:33;102060.25;;;25.58;33.46
9335;BME280;4706;41.844;26.082;2022-10-18T10:34:04;102052.75;;;25.47;32.99
9335;BME280;4706;41.844;26.082;2022-10-18T10:36:32;102029.88;;;25.32;33.52
9335;BME280;4706;41.844;26.082;2022-10-18T10:41:28;102049.00;;;25.42;33.14
9335;BME280;4706;41.844;26.082;2022-10-18T10:43:54;102034.19;;;25.46;32.91
9335;BME280;4706;41.844;26.082;2022-10-18T10:46:20;102036.63;;;25.63;32.84
9335;BME280;4706;41.844;26.082;2022-10-18T10:48:54;102032.56;;;25.80;32.54
9335;BME280;4706;41.844;26.082;2022-10-18T10:51:53;102026.41;;;25.94;32.16
9335;BME280;4706;41.844;26.082;2022-10-18T10:54:23;102012.53;;;26.04;31.90
9335;BME280;4706;41.844;26.082;2022-10-18T10:59:50;101993.94;;;26.00;32.14
9335;BME280;4706;41.844;26.082;2022-10-18T11:02:20;101984.03;;;26.09;32.15
9335;BME280;4706;41.844;26.082;2022-10-18T11:04:51;101985.94;;;26.25;31.87
9335;BME280;4706;41.844;26.082;2022-10-18T11:14:44;101976.28;;;26.68;31.20
9335;BME280;4706;41.844;26.082;2022-10-18T11:17:24;101973.56;;;26.75;30.69
9335;BME280;4706;41.844;26.082;2022-10-18T11:23:00;101968.38;;;26.54;29.81
9335;BME280;4706;41.844;26.082;2022-10-18T11:28:30;101949.84;;;26.80;30.27
9335;BME280;4706;41.844;26.082;2022-10-18T11:36:17;101929.69;;;25.89;30.73
9335;BME280;4706;41.844;26.082;2022-10-18T11:39:18;101920.63;;;26.00;30.69
9335;BME280;4706;41.844;26.082;2022-10-18T11:42:18;101918.88;;;26.14;30.63
9335;BME280;4706;41.844;26.082;2022-10-18T11:45:04;101908.75;;;26.33;30.19
9335;BME280;4706;41.844;26.082;2022-10-18T11:47:53;101900.69;;;26.35;30.15
9335;BME280;4706;41.844;26.082;2022-10-18T11:50:22;101908.16;;;26.47;30.54
9335;BME280;4706;41.844;26.082;2022-10-18T12:00:59;101897.66;;;26.97;29.20
9335;BME280;4706;41.844;26.082;2022-10-18T12:03:55;101888.13;;;26.78;28.77
9335;BME280;4706;41.844;26.082;2022-10-18T12:06:32;101875.63;;;26.53;29.39
9335;BME280;4706;41.844;26.082;2022-10-18T12:09:08;101876.91;;;26.59;29.60
9335;BME280;4706;41.844;26.082;2022-10-18T12:11:44;101879.09;;;26.69;29.08
9335;BME280;4706;41.844;26.082;2022-10-18T12:14:35;101872.19;;;26.67;29.12
9335;BME280;4706;41.844;26.082;2022-10-18T12:17:05;101866.72;;;26.77;29.48
9335;BME280;4706;41.844;26.082;2022-10-18T12:19:35;101862.09;;;26.92;29.15
9335;BME280;4706;41.844;26.082;2022-10-18T12:22:13;101863.03;;;26.73;28.96
9335;BME280;4706;41.844;26.082;2022-10-18T12:24:42;101862.00;;;26.58;29.68
9335;BME280;4706;41.844;26.082;2022-10-18T12:27:10;101854.81;;;26.15;30.53
9335;BME280;4706;41.844;26.082;2022-10-18T12:29:55;101857.84;;;26.26;30.31
9335;BME280;4706;41.844;26.082;2022-10-18T12:32:29;101856.38;;;26.12;30.69
9335;BME280;4706;41.844;26.082;2022-10-18T12:35:08;101846.56;;;26.26;30.52
9335;BME280;4706;41.844;26.082;2022-10-18T12:40:39;101838.00;;;26.45;29.76
9335;BME280;4706;41.844;26.082;2022-10-18T12:43:17;101845.13;;;26.39;29.35
9335;BME280;4706;41.844;26.082;2022-10-18T12:45:54;101846.44;;;26.19;30.31
9335;BME280;4706;41.844;26.082;2022-10-18T12:51:03;101839.16;;;25.52;30.57
9335;BME280;4706;41.844;26.082;2022-10-18T12:53:30;101834.84;;;25.58;31.33
9335;BME280;4706;41.844;26.082;2022-10-18T13:09:27;101807.81;;;25.34;32.35
9335;BME280;4706;41.844;26.082;2022-10-18T13:11:57;101805.75;;;25.12;32.71
9335;BME280;4706;41.844;26.082;2022-10-18T13:22:51;101791.66;;;25.31;33.23
9335;BME280;4706;41.844;26.082;2022-10-18T13:25:25;101784.16;;;25.19;33.03
9335;BME280;4706;41.844;26.082;2022-10-18T13:33:36;101777.69;;;24.61;34.30
9335;BME280;4706;41.844;26.082;2022-10-18T13:41:13;101762.28;;;24.74;33.90
9335;BME280;4706;41.844;26.082;2022-10-18T13:46:24;101766.69;;;24.71;33.33
9335;BME280;4706;41.844;26.082;2022-10-18T13:48:53;101760.50;;;24.46;34.00
9335;BME280;4706;41.844;26.082;2022-10-18T14:06:15;101748.63;;;23.58;34.60
9335;BME280;4706;41.844;26.082;2022-10-18T14:17:06;101739.66;;;23.09;36.16
9335;BME280;4706;41.844;26.082;2022-10-18T14:19:49;101738.75;;;23.05;36.58
9335;BME280;4706;41.844;26.082;2022-10-18T14:22:29;101734.88;;;23.09;36.66
9335;BME280;4706;41.844;26.082;2022-10-18T14:24:57;101738.53;;;22.97;37.03
9335;BME280;4706;41.844;26.082;2022-10-18T14:27:31;101730.63;;;22.87;37.37
9335;BME280;4706;41.844;26.082;2022-10-18T14:30:16;101723.88;;;22.76;37.61
9335;BME280;4706;41.844;26.082;2022-10-18T14:32:45;101735.00;;;22.60;37.74
9335;BME280;4706;41.844;26.082;2022-10-18T14:37:47;101731.69;;;22.42;38.27
9335;BME280;4706;41.844;26.082;2022-10-18T14:40:31;101717.56;;;22.26;38.25
9335;BME280;4706;41.844;26.082;2022-10-18T14:45:34;101723.78;;;22.20;38.40
9335;BME280;4706;41.844;26.082;2022-10-18T14:48:14;101720.88;;;22.16;38.39
9335;BME280;4706;41.844;26.082;2022-10-18T14:50:42;101733.94;;;22.24;38.49
9335;BME280;4706;41.844;26.082;2022-10-18T14:53:14;101731.50;;;22.23;38.69
9335;BME280;4706;41.844;26.082;2022-10-18T14:55:41;101733.69;;;22.29;38.30
9335;BME280;4706;41.844;26.082;2022-10-18T14:58:14;101737.91;;;22.23;38.59
9335;BME280;4706;41.844;26.082;2022-10-18T15:00:41;101710.91;;;22.06;38.93
9335;BME280;4706;41.844;26.082;2022-10-18T15:03:12;101720.25;;;22.11;39.17
9335;BME280;4706;41.844;26.082;2022-10-18T15:05:51;101723.41;;;21.97;39.57
9335;BME280;4706;41.844;26.082;2022-10-18T15:08:18;101729.97;;;22.01;40.34
9335;BME280;4706;41.844;26.082;2022-10-18T15:10:45;101724.94;;;21.94;40.50
9335;BME280;4706;41.844;26.082;2022-10-18T15:13:12;101729.72;;;21.81;41.35
9335;BME280;4706;41.844;26.082;2022-10-18T15:15:38;101726.31;;;21.64;42.25
9335;BME280;4706;41.844;26.082;2022-10-18T15:18:06;101728.97;;;21.48;42.66
9335;BME280;4706;41.844;26.082;2022-10-18T15:20:35;101733.53;;;21.40;42.79
9335;BME280;4706;41.844;26.082;2022-10-18T15:23:27;101730.22;;;21.38;42.85
9335;BME280;4706;41.844;26.082;2022-10-18T15:26:02;101735.84;;;21.17;43.53
9335;BME280;4706;41.844;26.082;2022-10-18T15:28:34;101726.59;;;21.04;43.93
9335;BME280;4706;41.844;26.082;2022-10-18T15:31:02;101727.16;;;20.98;43.72
9335;BME280;4706;41.844;26.082;2022-10-18T15:33:30;101723.97;;;20.87;44.14
9335;BME280;4706;41.844;26.082;2022-10-18T15:36:26;101728.06;;;20.90;44.18
9335;BME280;4706;41.844;26.082;2022-10-18T15:38:53;101725.41;;;20.93;44.25